Flight Track Log - Related Links

Times and Time Zones

All times are in EDT time to prevent confusion due to time zone crossing. See the SWA2236 flight status page for this flight to view local times or setup timezone preferences in your user account.

Time Position Orientation Groundspeed Altitude Reporting Facility
EDT Latitude Longitude Course Direction KTS MPH feet Rate Location/Type
Wed 07:27:54 PM 30.5339 -81.6506 35° Northeast 227 261 1,800  Level Jacksonville Center
Wed 07:29:15 PM 30.6322 -81.6636 353° North 292 336 4,800 2,493 Climbing Jacksonville Center
Wed 07:30:16 PM 30.7158 -81.6747 353° North 298 343 7,700 2,777 Climbing Jacksonville Center
Wed 07:31:16 PM 30.8036 -81.6761 359° North 303 349 10,400 2,200 Climbing Jacksonville Center
Wed 07:32:16 PM 30.8972 -81.6408 18° North 330 380 12,100 2,324 Climbing Jacksonville Center
Wed 07:38:04 PM 31.5050 -81.4000 18° North 426 490 26,200 2,379 Climbing FlightAware ADS-B
Wed 07:38:47 PM 31.5580 -81.3180 53° Northeast 433 498 27,600 1,780 Climbing FlightAware ADS-B
Wed 07:39:35 PM 31.6200 -81.2180 54° Northeast 453 521 28,900 1,553 Climbing FlightAware ADS-B
Wed 07:40:12 PM 31.6650 -81.1470 53° Northeast 462 532 29,800 1,468 Climbing FlightAware ADS-B
Wed 07:41:09 PM 31.7720 -81.0770 29° Northeast 473 544 31,200 1,794 Climbing FlightAware ADS-B
Wed 07:41:49 PM 31.8490 -81.0350 25° Northeast 465 535 32,700 2,550 Climbing FlightAware ADS-B
Wed 07:42:29 PM 31.9350 -80.9870 25° Northeast 447 514 34,600 2,250 Climbing FlightAware ADS-B
Wed 07:43:09 PM 32.0000 -80.9510 25° Northeast 442 509 35,700 1,562 Climbing FlightAware ADS-B
Wed 07:43:42 PM 32.0620 -80.9160 26° Northeast 443 510 36,500 1,519 Climbing FlightAware ADS-B
Wed 07:44:28 PM 32.1490 -80.8660 26° Northeast 442 509 37,700 1,301 Climbing FlightAware ADS-B
Wed 07:45:05 PM 32.2080 -80.8330 25° Northeast 441 507 38,300 634 Climbing FlightAware ADS-B
Wed 07:46:31 PM 32.3550 -80.7500 25° Northeast 438 504 39,000 341 Climbing FlightAware ADS-B
Wed 07:47:08 PM 32.4540 -80.6930 26° Northeast 474 545 39,000  Level FlightAware ADS-B
Wed 07:47:53 PM 32.5470 -80.6400 26° Northeast 462 532 39,000  Level FlightAware ADS-B
Wed 07:48:33 PM 32.6230 -80.5960 26° Northeast 449 517 39,000  Level FlightAware ADS-B
Wed 07:49:13 PM 32.6960 -80.5550 25° Northeast 444 511 39,000  Level FlightAware ADS-B
Wed 07:49:49 PM 32.7590 -80.5190 26° Northeast 443 510 39,000  Level FlightAware ADS-B
Wed 07:50:33 PM 32.8420 -80.4710 26° Northeast 441 507 39,000  Level FlightAware ADS-B
Wed 07:51:13 PM 32.9180 -80.4270 26° Northeast 439 505 39,000  Level FlightAware ADS-B
Wed 07:51:53 PM 32.9880 -80.3870 26° Northeast 439 505 39,000  Level FlightAware ADS-B
Wed 07:52:33 PM 33.0650 -80.3430 26° Northeast 438 504 39,000  Level FlightAware ADS-B
Wed 07:53:08 PM 33.1280 -80.3060 26° Northeast 438 504 39,000  Level FlightAware ADS-B
Wed 07:53:58 PM 33.2180 -80.2540 26° Northeast 439 505 39,000  Level FlightAware ADS-B
Wed 07:54:38 PM 33.2900 -80.2120 26° Northeast 439 505 39,000  Level FlightAware ADS-B
Wed 07:55:23 PM 33.3750 -80.1630 26° Northeast 440 506 39,000  Level FlightAware ADS-B
Wed 07:56:03 PM 33.4450 -80.1220 26° Northeast 440 506 39,000  Level FlightAware ADS-B
Wed 07:56:43 PM 33.5210 -80.0770 26° Northeast 441 507 39,000  Level FlightAware ADS-B
Wed 07:57:20 PM 33.5840 -80.0400 26° Northeast 441 507 39,000  Level FlightAware ADS-B
Wed 07:57:58 PM 33.6570 -79.9980 26° Northeast 442 509 39,000  Level FlightAware ADS-B
Wed 07:58:38 PM 33.7280 -79.9560 26° Northeast 440 506 39,000  Level FlightAware ADS-B
Wed 07:59:23 PM 33.8120 -79.9070 26° Northeast 437 503 39,000  Level FlightAware ADS-B
Wed 08:00:07 PM 33.8900 -79.8600 27° Northeast 436 502 39,000  Level FlightAware ADS-B
Wed 08:00:51 PM 33.9730 -79.8110 26° Northeast 436 502 39,000  Level FlightAware ADS-B
Wed 08:02:01 PM 34.1010 -79.7360 26° Northeast 444 511 39,000  Level FlightAware ADS-B
Wed 08:02:37 PM 34.1680 -79.6960 26° Northeast 446 513 39,000  Level FlightAware ADS-B
Wed 08:03:11 PM 34.2270 -79.6610 26° Northeast 448 516 39,000  Level FlightAware ADS-B
Wed 08:03:43 PM 34.2900 -79.6270 24° Northeast 451 519 39,000  Level FlightAware ADS-B
Wed 08:04:21 PM 34.3530 -79.5950 23° Northeast 452 520 39,000  Level FlightAware ADS-B
Wed 08:05:02 PM 34.4450 -79.5460 24° Northeast 458 527 39,000  Level FlightAware ADS-B
Wed 08:05:46 PM 34.5290 -79.5020 23° Northeast 459 528 39,000  Level FlightAware ADS-B
Wed 08:06:24 PM 34.6030 -79.4630 23° Northeast 462 532 39,000  Level FlightAware ADS-B
Wed 08:07:10 PM 34.6940 -79.4150 23° Northeast 464 534 39,000  Level FlightAware ADS-B
Wed 08:07:52 PM 34.7770 -79.3720 23° Northeast 466 536 39,000  Level FlightAware ADS-B
Wed 08:08:32 PM 34.8570 -79.3290 24° Northeast 468 539 39,000  Level FlightAware ADS-B
Wed 08:09:14 PM 34.9390 -79.2850 24° Northeast 467 537 39,000  Level FlightAware ADS-B
Wed 08:09:48 PM 35.0070 -79.2490 23° Northeast 464 534 39,000  Level FlightAware ADS-B
Wed 08:10:28 PM 35.0870 -79.2070 23° Northeast 464 534 39,000  Level FlightAware ADS-B
Wed 08:11:11 PM 35.1590 -79.1690 23° Northeast 464 534 39,000  Level FlightAware ADS-B
Wed 08:12:14 PM 35.2690 -79.1110 23° Northeast 454 522 39,000  Level FlightAware ADS-B
Wed 08:13:06 PM 35.3790 -79.0510 24° Northeast 442 509 39,000  Level FlightAware ADS-B
Wed 08:13:55 PM 35.4680 -79.0020 24° Northeast 445 512 39,000  Level FlightAware ADS-B
Wed 08:14:43 PM 35.5570 -78.9330 32° Northeast 447 514 39,000  Level FlightAware ADS-B
Wed 08:15:31 PM 35.6370 -78.8680 33° Northeast 453 521 39,000  Level FlightAware ADS-B
Wed 08:16:07 PM 35.6980 -78.8200 33° Northeast 456 525 39,000  Level FlightAware ADS-B
Wed 08:16:53 PM 35.7850 -78.7490 33° Northeast 455 524 39,000  Level FlightAware ADS-B
Wed 08:17:22 PM 35.8400 -78.7040 34° Northeast 454 522 39,000  Level FlightAware ADS-B
Wed 08:18:06 PM 35.9180 -78.6410 33° Northeast 453 521 39,000  Level FlightAware ADS-B
Wed 08:18:50 PM 35.9940 -78.5800 33° Northeast 452 520 39,000  Level FlightAware ADS-B
Wed 08:19:30 PM 36.0650 -78.5220 33° Northeast 452 520 39,000 -225 Level FlightAware ADS-B
Wed 08:20:10 PM 36.1350 -78.4640 34° Northeast 457 526 38,700 -1,463 Descending FlightAware ADS-B
Wed 08:20:52 PM 36.2080 -78.4040 34° Northeast 460 529 37,000 -2,791 Descending FlightAware ADS-B
Wed 08:21:36 PM 36.2880 -78.3390 33° Northeast 467 537 34,700 -3,419 Descending FlightAware ADS-B
Wed 08:22:18 PM 36.3650 -78.2780 33° Northeast 473 544 32,100 -3,659 Descending FlightAware ADS-B
Wed 08:22:58 PM 36.4380 -78.2170 34° Northeast 479 551 29,700 -2,447 Descending FlightAware ADS-B
Wed 08:23:34 PM 36.5020 -78.1620 35° Northeast 459 528 29,000 -701 Descending FlightAware ADS-B
Wed 08:24:15 PM 36.5710 -78.1030 34° Northeast 447 514 28,800 -711 Descending FlightAware ADS-B
Wed 08:24:50 PM 36.6310 -78.0530 34° Northeast 428 493 28,100 -1,247 Descending FlightAware ADS-B
Wed 08:25:32 PM 36.7030 -78.0030 29° Northeast 421 484 27,200 -825 Descending FlightAware ADS-B
Wed 08:26:10 PM 36.7720 -77.9690 22° Northeast 427 491 27,000 -138 Descending FlightAware ADS-B
Wed 08:26:59 PM 36.8650 -77.9220 22° Northeast 440 506 27,000  Level FlightAware ADS-B
Wed 08:27:37 PM 36.9350 -77.8860 22° Northeast 450 518 27,000  Level FlightAware ADS-B
Wed 08:28:16 PM 37.0130 -77.8470 22° Northeast 466 536 27,000  Level FlightAware ADS-B
Wed 08:28:59 PM 37.1010 -77.8030 22° Northeast 475 547 27,000  Level FlightAware ADS-B
Wed 08:29:37 PM 37.1790 -77.7620 23° Northeast 476 548 27,000  Level FlightAware ADS-B
Wed 08:30:27 PM 37.2800 -77.7110 22° Northeast 477 549 27,000  Level FlightAware ADS-B
Wed 08:31:11 PM 37.3700 -77.6650 22° Northeast 478 550 27,000 -300 Level FlightAware ADS-B
Wed 08:31:47 PM 37.4450 -77.6260 22° Northeast 475 547 26,600 -1,667 Descending FlightAware ADS-B
Wed 08:32:23 PM 37.5170 -77.5890 22° Northeast 467 537 25,000 -2,684 Descending FlightAware ADS-B
Wed 08:33:03 PM 37.5960 -77.5480 22° Northeast 462 532 23,200 -1,538 Descending FlightAware ADS-B
Wed 08:33:41 PM 37.6710 -77.5100 22° Northeast 457 526 23,000 -150 Descending FlightAware ADS-B
Wed 08:34:23 PM 37.7530 -77.4670 23° Northeast 455 524 23,000  Level FlightAware ADS-B
Wed 08:34:59 PM 37.8240 -77.4300 22° Northeast 455 524 23,000  Level FlightAware ADS-B
Wed 08:35:43 PM 37.9080 -77.3860 22° Northeast 456 525 23,000  Level FlightAware ADS-B
Wed 08:36:37 PM 38.0130 -77.3310 22° Northeast 459 528 23,000 -653 Level FlightAware ADS-B
Wed 08:37:24 PM 38.0900 -77.2910 22° Northeast 446 513 21,900 -1,884 Descending FlightAware ADS-B
Wed 08:38:03 PM 38.1620 -77.2540 22° Northeast 442 509 20,300 -2,759 Descending FlightAware ADS-B
Wed 08:38:51 PM 38.2580 -77.2030 23° Northeast 437 503 17,900 -2,967 Descending FlightAware ADS-B
Wed 08:39:34 PM 38.3350 -77.1620 23° Northeast 433 498 15,800 -2,259 Descending FlightAware ADS-B
Wed 08:40:16 PM 38.4100 -77.1030 32° Northeast 401 461 14,700 -1,852 Descending FlightAware ADS-B
Wed 08:40:55 PM 38.4620 -77.0400 43° Northeast 392 451 13,300 -2,231 Descending FlightAware ADS-B
Wed 08:41:34 PM 38.5100 -76.9820 43° Northeast 385 443 11,800 -2,104 Descending FlightAware ADS-B
Wed 08:42:12 PM 38.5650 -76.9160 43° Northeast 367 422 10,600 -1,244 Descending FlightAware ADS-B
Wed 08:42:56 PM 38.6160 -76.8540 44° Northeast 331 381 10,100 -583 Descending FlightAware ADS-B
Wed 08:43:24 PM 38.6460 -76.8180 43° Northeast 309 356 9,900 -577 Descending FlightAware ADS-B
Wed 08:43:48 PM 38.6710 -76.7880 43° Northeast 299 344 9,600 -1,269 Descending FlightAware ADS-B
Wed 08:44:16 PM 38.6980 -76.7530 45° Northeast 306 352 8,800 -1,350 Descending FlightAware ADS-B
Wed 08:44:28 PM 38.7080 -76.7360 53° Northeast 300 345 8,700 -750 Descending FlightAware ADS-B
Wed 08:44:56 PM 38.7280 -76.6930 59° Northeast 304 350 8,300 -1,091 Descending FlightAware ADS-B
Wed 08:45:12 PM 38.7400 -76.6670 59° Northeast 302 348 7,900 -1,500 Descending FlightAware ADS-B
Wed 08:45:40 PM 38.7590 -76.6230 61° Northeast 301 346 7,200 -1,444 Descending FlightAware ADS-B
Wed 08:46:06 PM 38.7760 -76.5850 60° Northeast 302 348 6,600 -1,429 Descending FlightAware ADS-B
Wed 08:46:22 PM 38.7870 -76.5590 62° Northeast 300 345 6,200 -1,615 Descending FlightAware ADS-B
Wed 08:46:32 PM 38.7960 -76.5450 50° Northeast 299 344 5,900 -1,385 Descending FlightAware ADS-B
Wed 08:46:48 PM 38.8120 -76.5330 30° Northeast 289 333 5,600 -1,440 Descending FlightAware ADS-B
Wed 08:46:57 PM 38.8260 -76.5300 North 287 330 5,300 -1,636 Descending FlightAware ADS-B
Wed 08:47:32 PM 38.8710 -76.5470 344° North 287 330 4,400 -1,467 Descending FlightAware ADS-B
Wed 08:47:42 PM 38.8840 -76.5530 340° North 288 331 4,200 -923 Descending FlightAware ADS-B
Wed 08:48:11 PM 38.9210 -76.5700 340° North 287 330 3,800 -615 Descending FlightAware ADS-B
Wed 08:48:21 PM 38.9320 -76.5740 344° North 294 338 3,800  Level FlightAware ADS-B
Wed 08:48:46 PM 38.9630 -76.5900 338° Northwest 286 329 3,800  Level FlightAware ADS-B
Wed 08:48:57 PM 38.9720 -76.6000 319° Northwest 279 321 3,800  Level FlightAware ADS-B
Wed 08:49:12 PM 38.9850 -76.6260 303° West 274 315 3,800  Level FlightAware ADS-B
Wed 08:49:43 PM 39.0050 -76.6700 300° West 270 311 3,800 -130 Level FlightAware ADS-B
Wed 08:49:58 PM 39.0150 -76.6920 300° West 260 299 3,700 -167 Descending FlightAware ADS-B
Wed 08:50:19 PM 39.0250 -76.7150 299° West 240 276 3,700 133 Level FlightAware ADS-B
Wed 08:50:43 PM 39.0400 -76.7470 301° West 230 265 3,800 154 Climbing FlightAware ADS-B
Wed 08:50:58 PM 39.0470 -76.7650 297° West 232 267 3,800  Level FlightAware ADS-B
Wed 08:51:28 PM 39.0630 -76.8000 300° West 234 269 3,800  Level FlightAware ADS-B
Wed 08:51:38 PM 39.0690 -76.8130 301° West 233 268 3,800  Level FlightAware ADS-B
Wed 08:52:08 PM 39.0810 -76.8490 293° West 223 257 3,800 -146 Level FlightAware ADS-B
Wed 08:52:19 PM 39.0840 -76.8620 287° West 220 253 3,700  Descending FlightAware ADS-B
Wed 08:52:43 PM 39.0920 -76.8940 288° West 219 252 3,800 122 Climbing FlightAware ADS-B
Wed 08:53:08 PM 39.1000 -76.9250 288° West 221 254 3,800 -400 Level FlightAware ADS-B
Wed 08:53:43 PM 39.1160 -76.9650 297° West 234 269 3,400 -800 Descending FlightAware ADS-B
Wed 08:53:53 PM 39.1260 -76.9700 339° North 242 278 3,200 -923 Descending FlightAware ADS-B
Wed 08:54:35 PM 39.1600 -76.9430 32° Northeast 245 282 2,600 -783 Descending FlightAware ADS-B
Wed 08:55:02 PM 39.1810 -76.9130 48° Northeast 241 277 2,300 -615 Descending FlightAware ADS-B
Wed 08:55:14 PM 39.1880 -76.8990 57° Northeast 222 255 2,200 -471 Descending FlightAware ADS-B
Wed 08:55:53 PM 39.1840 -76.8570 97° East 191 220 1,900 -462 Descending FlightAware ADS-B
Wed 08:56:19 PM 39.1830 -76.8290 93° East 179 206 1,700 -103 Descending FlightAware ADS-B
Wed 08:56:51 PM 39.1810 -76.8010 95° East 179 206 1,800 -655 Climbing FlightAware ADS-B
Wed 08:58:09 PM 39.1833 -76.7167 95° East 143 165 500 -1,000 Descending Potomac TRACON
Wed 09:00:00 PM 39.1667 -76.6667 83° East  Level FlightAware Approximate

Login

Don't have an account? Register now (free) for customized features, flight alerts, and more!